sensor_id;sensor_type;location;lat;lon;timestamp;P1;durP1;ratioP1;P2;durP2;ratioP2
47778;SDS011;33538;48.432;11.350;2023-12-28T00:01:07;9.77;;;4.00;;
47778;SDS011;33538;48.432;11.350;2023-12-28T00:03:35;8.38;;;4.20;;
47778;SDS011;33538;48.432;11.350;2023-12-28T00:06:02;11.18;;;4.82;;
47778;SDS011;33538;48.432;11.350;2023-12-28T00:08:30;8.38;;;4.13;;
47778;SDS011;33538;48.432;11.350;2023-12-28T00:10:57;9.38;;;3.72;;
47778;SDS011;33538;48.432;11.350;2023-12-28T00:13:23;9.00;;;4.07;;
47778;SDS011;33538;48.432;11.350;2023-12-28T00:15:50;8.40;;;3.60;;
47778;SDS011;33538;48.432;11.350;2023-12-28T00:18:17;11.23;;;4.03;;
47778;SDS011;33538;48.432;11.350;2023-12-28T00:20:49;9.45;;;4.13;;
47778;SDS011;33538;48.432;11.350;2023-12-28T00:23:17;9.82;;;3.90;;
47778;SDS011;33538;48.432;11.350;2023-12-28T00:25:44;6.90;;;3.75;;
47778;SDS011;33538;48.432;11.350;2023-12-28T00:28:11;8.57;;;4.10;;
47778;SDS011;33538;48.432;11.350;2023-12-28T00:30:38;7.45;;;4.00;;
47778;SDS011;33538;48.432;11.350;2023-12-28T00:33:05;9.75;;;3.80;;
47778;SDS011;33538;48.432;11.350;2023-12-28T00:35:32;8.63;;;4.13;;
47778;SDS011;33538;48.432;11.350;2023-12-28T00:38:00;6.68;;;3.50;;
47778;SDS011;33538;48.432;11.350;2023-12-28T00:40:27;11.38;;;4.15;;
47778;SDS011;33538;48.432;11.350;2023-12-28T00:42:55;8.50;;;3.88;;
47778;SDS011;33538;48.432;11.350;2023-12-28T00:45:22;7.68;;;3.45;;
47778;SDS011;33538;48.432;11.350;2023-12-28T00:47:49;8.48;;;3.53;;
47778;SDS011;33538;48.432;11.350;2023-12-28T00:50:16;7.53;;;3.80;;
47778;SDS011;33538;48.432;11.350;2023-12-28T00:52:43;9.35;;;3.97;;
47778;SDS011;33538;48.432;11.350;2023-12-28T00:55:11;6.63;;;3.47;;
47778;SDS011;33538;48.432;11.350;2023-12-28T00:57:38;6.40;;;3.55;;
47778;SDS011;33538;48.432;11.350;2023-12-28T01:00:06;9.27;;;3.75;;
47778;SDS011;33538;48.432;11.350;2023-12-28T01:02:33;7.40;;;3.63;;
47778;SDS011;33538;48.432;11.350;2023-12-28T01:05:00;8.32;;;3.95;;
47778;SDS011;33538;48.432;11.350;2023-12-28T01:07:27;5.65;;;3.33;;
47778;SDS011;33538;48.432;11.350;2023-12-28T01:09:54;4.50;;;2.75;;
47778;SDS011;33538;48.432;11.350;2023-12-28T01:12:22;4.65;;;2.53;;
47778;SDS011;33538;48.432;11.350;2023-12-28T01:14:49;7.55;;;3.00;;
47778;SDS011;33538;48.432;11.350;2023-12-28T01:17:16;5.97;;;2.65;;
47778;SDS011;33538;48.432;11.350;2023-12-28T01:19:43;7.28;;;2.38;;
47778;SDS011;33538;48.432;11.350;2023-12-28T01:22:10;6.72;;;2.70;;
47778;SDS011;33538;48.432;11.350;2023-12-28T01:24:37;6.57;;;2.63;;
47778;SDS011;33538;48.432;11.350;2023-12-28T01:27:04;4.25;;;2.47;;
47778;SDS011;33538;48.432;11.350;2023-12-28T01:29:32;3.55;;;2.08;;
47778;SDS011;33538;48.432;11.350;2023-12-28T01:31:59;4.55;;;2.38;;
47778;SDS011;33538;48.432;11.350;2023-12-28T01:34:26;3.83;;;2.25;;
47778;SDS011;33538;48.432;11.350;2023-12-28T01:36:53;4.13;;;2.13;;
47778;SDS011;33538;48.432;11.350;2023-12-28T01:39:19;3.38;;;2.10;;
47778;SDS011;33538;48.432;11.350;2023-12-28T01:41:46;4.88;;;2.40;;
47778;SDS011;33538;48.432;11.350;2023-12-28T01:44:13;4.20;;;2.20;;
47778;SDS011;33538;48.432;11.350;2023-12-28T01:46:41;5.65;;;2.17;;
47778;SDS011;33538;48.432;11.350;2023-12-28T01:49:08;5.30;;;2.05;;
47778;SDS011;33538;48.432;11.350;2023-12-28T01:51:35;3.25;;;1.75;;
47778;SDS011;33538;48.432;11.350;2023-12-28T01:54:03;2.60;;;1.70;;
47778;SDS011;33538;48.432;11.350;2023-12-28T01:56:30;2.35;;;1.23;;
47778;SDS011;33538;48.432;11.350;2023-12-28T01:58:58;3.30;;;1.10;;
47778;SDS011;33538;48.432;11.350;2023-12-28T02:01:26;3.50;;;1.52;;
47778;SDS011;33538;48.432;11.350;2023-12-28T02:03:54;2.55;;;1.25;;
47778;SDS011;33538;48.432;11.350;2023-12-28T02:06:23;2.28;;;1.45;;
47778;SDS011;33538;48.432;11.350;2023-12-28T02:08:50;1.85;;;1.33;;
47778;SDS011;33538;48.432;11.350;2023-12-28T02:11:17;1.48;;;1.10;;
47778;SDS011;33538;48.432;11.350;2023-12-28T02:13:45;2.08;;;1.25;;
47778;SDS011;33538;48.432;11.350;2023-12-28T02:16:13;3.17;;;1.65;;
47778;SDS011;33538;48.432;11.350;2023-12-28T02:18:43;2.95;;;1.20;;
47778;SDS011;33538;48.432;11.350;2023-12-28T02:21:13;4.03;;;1.30;;
47778;SDS011;33538;48.432;11.350;2023-12-28T02:23:45;3.78;;;1.52;;
47778;SDS011;33538;48.432;11.350;2023-12-28T02:26:14;1.58;;;1.00;;
47778;SDS011;33538;48.432;11.350;2023-12-28T02:28:41;1.30;;;0.82;;
47778;SDS011;33538;48.432;11.350;2023-12-28T02:31:08;3.33;;;1.30;;
47778;SDS011;33538;48.432;11.350;2023-12-28T02:33:42;2.10;;;1.48;;
47778;SDS011;33538;48.432;11.350;2023-12-28T02:36:15;1.52;;;1.10;;
47778;SDS011;33538;48.432;11.350;2023-12-28T02:38:45;1.23;;;1.00;;
47778;SDS011;33538;48.432;11.350;2023-12-28T02:41:15;1.65;;;1.10;;
47778;SDS011;33538;48.432;11.350;2023-12-28T02:43:43;1.48;;;0.90;;
47778;SDS011;33538;48.432;11.350;2023-12-28T02:46:10;3.83;;;1.30;;
47778;SDS011;33538;48.432;11.350;2023-12-28T02:48:38;2.25;;;1.10;;
47778;SDS011;33538;48.432;11.350;2023-12-28T02:51:05;1.60;;;1.00;;
47778;SDS011;33538;48.432;11.350;2023-12-28T02:53:32;1.40;;;0.95;;
47778;SDS011;33538;48.432;11.350;2023-12-28T02:55:59;1.63;;;1.17;;
47778;SDS011;33538;48.432;11.350;2023-12-28T02:58:27;2.17;;;0.95;;
47778;SDS011;33538;48.432;11.350;2023-12-28T03:00:54;1.35;;;1.00;;
47778;SDS011;33538;48.432;11.350;2023-12-28T03:03:21;1.90;;;0.70;;
47778;SDS011;33538;48.432;11.350;2023-12-28T03:05:48;2.30;;;1.30;;
47778;SDS011;33538;48.432;11.350;2023-12-28T03:08:15;1.13;;;0.90;;
47778;SDS011;33538;48.432;11.350;2023-12-28T03:10:42;1.33;;;0.90;;
47778;SDS011;33538;48.432;11.350;2023-12-28T03:13:09;1.90;;;0.80;;
47778;SDS011;33538;48.432;11.350;2023-12-28T03:15:37;1.92;;;1.15;;
47778;SDS011;33538;48.432;11.350;2023-12-28T03:18:04;3.50;;;1.20;;
47778;SDS011;33538;48.432;11.350;2023-12-28T03:20:31;1.58;;;1.20;;
47778;SDS011;33538;48.432;11.350;2023-12-28T03:22:58;1.58;;;0.93;;
47778;SDS011;33538;48.432;11.350;2023-12-28T03:25:25;1.15;;;1.00;;
47778;SDS011;33538;48.432;11.350;2023-12-28T03:27:52;2.33;;;1.00;;
47778;SDS011;33538;48.432;11.350;2023-12-28T03:30:18;1.98;;;1.13;;
47778;SDS011;33538;48.432;11.350;2023-12-28T03:32:47;1.75;;;1.17;;
47778;SDS011;33538;48.432;11.350;2023-12-28T03:35:14;0.93;;;0.75;;
47778;SDS011;33538;48.432;11.350;2023-12-28T03:37:41;1.00;;;0.90;;
47778;SDS011;33538;48.432;11.350;2023-12-28T03:40:08;1.60;;;0.70;;
47778;SDS011;33538;48.432;11.350;2023-12-28T03:42:35;1.77;;;1.00;;
47778;SDS011;33538;48.432;11.350;2023-12-28T03:45:03;1.52;;;1.00;;
47778;SDS011;33538;48.432;11.350;2023-12-28T03:47:30;2.60;;;1.20;;
47778;SDS011;33538;48.432;11.350;2023-12-28T03:49:58;1.00;;;0.70;;
47778;SDS011;33538;48.432;11.350;2023-12-28T03:52:25;1.73;;;0.75;;
47778;SDS011;33538;48.432;11.350;2023-12-28T03:54:52;3.10;;;0.90;;
47778;SDS011;33538;48.432;11.350;2023-12-28T03:57:19;4.38;;;1.23;;
47778;SDS011;33538;48.432;11.350;2023-12-28T03:59:46;2.53;;;1.23;;
47778;SDS011;33538;48.432;11.350;2023-12-28T04:02:13;1.95;;;1.00;;
47778;SDS011;33538;48.432;11.350;2023-12-28T04:04:40;0.98;;;0.70;;
47778;SDS011;33538;48.432;11.350;2023-12-28T04:07:08;1.60;;;1.17;;
47778;SDS011;33538;48.432;11.350;2023-12-28T04:09:35;3.13;;;0.95;;
47778;SDS011;33538;48.432;11.350;2023-12-28T04:12:01;4.57;;;1.13;;
47778;SDS011;33538;48.432;11.350;2023-12-28T04:14:28;1.42;;;0.68;;
47778;SDS011;33538;48.432;11.350;2023-12-28T04:16:55;2.25;;;0.77;;
47778;SDS011;33538;48.432;11.350;2023-12-28T04:19:22;1.33;;;0.73;;
47778;SDS011;33538;48.432;11.350;2023-12-28T04:21:49;0.63;;;0.50;;
47778;SDS011;33538;48.432;11.350;2023-12-28T04:24:17;1.48;;;1.02;;
47778;SDS011;33538;48.432;11.350;2023-12-28T04:26:44;2.13;;;1.30;;
47778;SDS011;33538;48.432;11.350;2023-12-28T04:29:11;1.20;;;0.98;;
47778;SDS011;33538;48.432;11.350;2023-12-28T04:31:39;2.08;;;0.80;;
47778;SDS011;33538;48.432;11.350;2023-12-28T04:34:06;1.60;;;0.93;;
47778;SDS011;33538;48.432;11.350;2023-12-28T04:36:38;1.42;;;1.00;;
47778;SDS011;33538;48.432;11.350;2023-12-28T04:39:06;1.30;;;0.80;;
47778;SDS011;33538;48.432;11.350;2023-12-28T04:41:34;1.70;;;0.90;;
47778;SDS011;33538;48.432;11.350;2023-12-28T04:44:01;1.48;;;0.88;;
47778;SDS011;33538;48.432;11.350;2023-12-28T04:46:27;1.45;;;0.80;;
47778;SDS011;33538;48.432;11.350;2023-12-28T04:48:54;1.08;;;0.82;;
47778;SDS011;33538;48.432;11.350;2023-12-28T04:51:21;1.23;;;0.77;;
47778;SDS011;33538;48.432;11.350;2023-12-28T04:53:48;1.92;;;0.80;;
47778;SDS011;33538;48.432;11.350;2023-12-28T04:56:17;1.35;;;0.70;;
47778;SDS011;33538;48.432;11.350;2023-12-28T04:58:46;1.27;;;0.63;;
47778;SDS011;33538;48.432;11.350;2023-12-28T05:01:12;1.70;;;0.98;;
47778;SDS011;33538;48.432;11.350;2023-12-28T05:03:40;1.42;;;1.00;;
47778;SDS011;33538;48.432;11.350;2023-12-28T05:06:07;2.10;;;1.00;;
47778;SDS011;33538;48.432;11.350;2023-12-28T05:08:33;1.13;;;0.90;;
47778;SDS011;33538;48.432;11.350;2023-12-28T05:11:00;2.60;;;0.98;;
47778;SDS011;33538;48.432;11.350;2023-12-28T05:13:27;0.77;;;0.68;;
47778;SDS011;33538;48.432;11.350;2023-12-28T05:15:55;1.50;;;0.90;;
47778;SDS011;33538;48.432;11.350;2023-12-28T05:18:22;1.55;;;0.75;;
47778;SDS011;33538;48.432;11.350;2023-12-28T05:20:49;1.58;;;0.90;;
47778;SDS011;33538;48.432;11.350;2023-12-28T05:23:16;1.65;;;0.80;;
47778;SDS011;33538;48.432;11.350;2023-12-28T05:25:43;2.28;;;1.00;;
47778;SDS011;33538;48.432;11.350;2023-12-28T05:28:09;2.05;;;1.00;;
47778;SDS011;33538;48.432;11.350;2023-12-28T05:30:36;1.10;;;0.77;;
47778;SDS011;33538;48.432;11.350;2023-12-28T05:33:05;1.08;;;0.98;;
47778;SDS011;33538;48.432;11.350;2023-12-28T05:35:32;0.63;;;0.60;;
47778;SDS011;33538;48.432;11.350;2023-12-28T05:37:58;1.20;;;0.80;;
47778;SDS011;33538;48.432;11.350;2023-12-28T05:40:26;1.15;;;0.60;;
47778;SDS011;33538;48.432;11.350;2023-12-28T05:42:52;1.70;;;0.93;;
47778;SDS011;33538;48.432;11.350;2023-12-28T05:45:19;1.60;;;0.70;;
47778;SDS011;33538;48.432;11.350;2023-12-28T05:47:46;1.00;;;0.60;;
47778;SDS011;33538;48.432;11.350;2023-12-28T05:50:15;1.00;;;0.75;;
47778;SDS011;33538;48.432;11.350;2023-12-28T05:52:41;1.30;;;0.70;;
47778;SDS011;33538;48.432;11.350;2023-12-28T05:55:08;1.23;;;0.80;;
47778;SDS011;33538;48.432;11.350;2023-12-28T05:57:35;1.98;;;0.90;;
47778;SDS011;33538;48.432;11.350;2023-12-28T06:00:02;1.95;;;0.77;;
47778;SDS011;33538;48.432;11.350;2023-12-28T06:02:30;1.90;;;0.77;;
47778;SDS011;33538;48.432;11.350;2023-12-28T06:04:56;4.60;;;1.10;;
47778;SDS011;33538;48.432;11.350;2023-12-28T06:07:25;0.88;;;0.70;;
47778;SDS011;33538;48.432;11.350;2023-12-28T06:09:52;3.25;;;1.00;;
47778;SDS011;33538;48.432;11.350;2023-12-28T06:12:19;1.08;;;0.77;;
47778;SDS011;33538;48.432;11.350;2023-12-28T06:14:46;2.67;;;1.00;;
47778;SDS011;33538;48.432;11.350;2023-12-28T06:17:12;0.98;;;0.75;;
47778;SDS011;33538;48.432;11.350;2023-12-28T06:19:39;1.25;;;0.98;;
47778;SDS011;33538;48.432;11.350;2023-12-28T06:22:06;1.20;;;0.90;;
47778;SDS011;33538;48.432;11.350;2023-12-28T06:24:37;1.48;;;0.90;;
47778;SDS011;33538;48.432;11.350;2023-12-28T06:27:04;0.70;;;0.70;;
47778;SDS011;33538;48.432;11.350;2023-12-28T06:29:30;1.27;;;1.00;;
47778;SDS011;33538;48.432;11.350;2023-12-28T06:31:57;1.25;;;0.70;;
47778;SDS011;33538;48.432;11.350;2023-12-28T06:34:24;0.90;;;0.70;;
47778;SDS011;33538;48.432;11.350;2023-12-28T06:36:51;1.85;;;0.98;;
47778;SDS011;33538;48.432;11.350;2023-12-28T06:39:18;2.05;;;1.00;;
47778;SDS011;33538;48.432;11.350;2023-12-28T06:41:47;0.73;;;0.73;;
47778;SDS011;33538;48.432;11.350;2023-12-28T06:44:14;3.13;;;1.00;;
47778;SDS011;33538;48.432;11.350;2023-12-28T06:46:41;1.13;;;0.75;;
47778;SDS011;33538;48.432;11.350;2023-12-28T06:49:08;2.55;;;1.15;;
47778;SDS011;33538;48.432;11.350;2023-12-28T06:51:37;0.95;;;0.60;;
47778;SDS011;33538;48.432;11.350;2023-12-28T06:54:06;1.42;;;0.63;;
47778;SDS011;33538;48.432;11.350;2023-12-28T06:56:33;1.65;;;0.73;;
47778;SDS011;33538;48.432;11.350;2023-12-28T06:59:01;1.58;;;0.90;;
47778;SDS011;33538;48.432;11.350;2023-12-28T07:01:28;1.77;;;0.98;;
47778;SDS011;33538;48.432;11.350;2023-12-28T07:03:55;2.45;;;1.05;;
47778;SDS011;33538;48.432;11.350;2023-12-28T07:06:22;1.20;;;0.80;;
47778;SDS011;33538;48.432;11.350;2023-12-28T07:08:48;1.27;;;0.77;;
47778;SDS011;33538;48.432;11.350;2023-12-28T07:11:15;0.85;;;0.60;;
47778;SDS011;33538;48.432;11.350;2023-12-28T07:13:42;1.77;;;0.75;;
47778;SDS011;33538;48.432;11.350;2023-12-28T07:16:10;3.22;;;1.08;;
47778;SDS011;33538;48.432;11.350;2023-12-28T07:18:37;1.10;;;1.00;;
47778;SDS011;33538;48.432;11.350;2023-12-28T07:21:04;1.55;;;1.00;;
47778;SDS011;33538;48.432;11.350;2023-12-28T07:23:31;1.90;;;1.17;;
47778;SDS011;33538;48.432;11.350;2023-12-28T07:25:58;1.13;;;0.82;;
47778;SDS011;33538;48.432;11.350;2023-12-28T07:28:25;2.08;;;1.65;;
47778;SDS011;33538;48.432;11.350;2023-12-28T07:30:52;3.53;;;1.10;;
47778;SDS011;33538;48.432;11.350;2023-12-28T07:33:21;2.13;;;1.08;;
47778;SDS011;33538;48.432;11.350;2023-12-28T07:35:48;3.50;;;1.90;;
47778;SDS011;33538;48.432;11.350;2023-12-28T07:38:15;4.53;;;1.70;;
47778;SDS011;33538;48.432;11.350;2023-12-28T07:40:42;5.25;;;1.65;;
47778;SDS011;33538;48.432;11.350;2023-12-28T07:43:09;17.60;;;3.97;;
47778;SDS011;33538;48.432;11.350;2023-12-28T07:45:35;7.97;;;2.47;;
47778;SDS011;33538;48.432;11.350;2023-12-28T07:48:02;2.42;;;1.50;;
47778;SDS011;33538;48.432;11.350;2023-12-28T07:50:31;3.28;;;1.60;;
47778;SDS011;33538;48.432;11.350;2023-12-28T07:52:58;20.10;;;3.63;;
47778;SDS011;33538;48.432;11.350;2023-12-28T07:55:25;2.90;;;1.50;;
47778;SDS011;33538;48.432;11.350;2023-12-28T07:57:52;3.90;;;1.17;;
47778;SDS011;33538;48.432;11.350;2023-12-28T08:00:19;2.22;;;1.30;;
47778;SDS011;33538;48.432;11.350;2023-12-28T08:02:46;4.03;;;2.20;;
47778;SDS011;33538;48.432;11.350;2023-12-28T08:05:12;3.75;;;1.50;;
47778;SDS011;33538;48.432;11.350;2023-12-28T08:07:41;1.67;;;0.98;;
47778;SDS011;33538;48.432;11.350;2023-12-28T08:10:08;1.20;;;0.80;;
47778;SDS011;33538;48.432;11.350;2023-12-28T08:12:35;2.70;;;1.27;;
47778;SDS011;33538;48.432;11.350;2023-12-28T08:15:02;2.35;;;1.17;;
47778;SDS011;33538;48.432;11.350;2023-12-28T08:17:30;3.17;;;1.20;;
47778;SDS011;33538;48.432;11.350;2023-12-28T08:19:56;1.38;;;0.90;;
47778;SDS011;33538;48.432;11.350;2023-12-28T08:22:23;1.15;;;0.80;;
47778;SDS011;33538;48.432;11.350;2023-12-28T08:24:52;0.90;;;0.70;;
47778;SDS011;33538;48.432;11.350;2023-12-28T08:27:18;2.45;;;1.20;;
47778;SDS011;33538;48.432;11.350;2023-12-28T08:29:45;2.50;;;1.02;;
47778;SDS011;33538;48.432;11.350;2023-12-28T08:32:12;2.63;;;1.10;;
47778;SDS011;33538;48.432;11.350;2023-12-28T08:34:39;0.85;;;0.65;;
47778;SDS011;33538;48.432;11.350;2023-12-28T08:37:06;1.25;;;0.80;;
47778;SDS011;33538;48.432;11.350;2023-12-28T08:39:33;2.03;;;0.80;;
47778;SDS011;33538;48.432;11.350;2023-12-28T08:42:01;1.30;;;0.82;;
47778;SDS011;33538;48.432;11.350;2023-12-28T08:44:28;1.55;;;0.93;;
47778;SDS011;33538;48.432;11.350;2023-12-28T08:46:55;1.15;;;0.82;;
47778;SDS011;33538;48.432;11.350;2023-12-28T08:49:22;1.63;;;0.98;;
47778;SDS011;33538;48.432;11.350;2023-12-28T08:51:50;1.35;;;0.88;;
47778;SDS011;33538;48.432;11.350;2023-12-28T08:54:17;1.10;;;1.00;;
47778;SDS011;33538;48.432;11.350;2023-12-28T08:56:44;1.00;;;0.70;;
47778;SDS011;33538;48.432;11.350;2023-12-28T08:59:16;1.20;;;0.90;;
47778;SDS011;33538;48.432;11.350;2023-12-28T09:01:43;2.88;;;0.90;;
47778;SDS011;33538;48.432;11.350;2023-12-28T09:04:09;2.53;;;1.15;;
47778;SDS011;33538;48.432;11.350;2023-12-28T09:06:37;1.95;;;1.10;;
47778;SDS011;33538;48.432;11.350;2023-12-28T09:09:05;0.90;;;0.73;;
47778;SDS011;33538;48.432;11.350;2023-12-28T09:11:31;1.38;;;0.75;;
47778;SDS011;33538;48.432;11.350;2023-12-28T09:13:58;1.17;;;0.73;;
47778;SDS011;33538;48.432;11.350;2023-12-28T09:16:26;1.05;;;0.80;;
47778;SDS011;33538;48.432;11.350;2023-12-28T09:18:53;2.47;;;1.30;;
47778;SDS011;33538;48.432;11.350;2023-12-28T09:21:20;1.48;;;0.70;;
47778;SDS011;33538;48.432;11.350;2023-12-28T09:23:47;2.63;;;0.70;;
47778;SDS011;33538;48.432;11.350;2023-12-28T09:26:14;1.88;;;0.80;;
47778;SDS011;33538;48.432;11.350;2023-12-28T09:28:41;1.83;;;1.10;;
47778;SDS011;33538;48.432;11.350;2023-12-28T09:31:07;1.67;;;0.73;;
47778;SDS011;33538;48.432;11.350;2023-12-28T09:33:36;1.42;;;0.85;;
47778;SDS011;33538;48.432;11.350;2023-12-28T09:36:03;1.40;;;0.68;;
47778;SDS011;33538;48.432;11.350;2023-12-28T09:38:30;1.83;;;0.93;;
47778;SDS011;33538;48.432;11.350;2023-12-28T09:40:57;1.48;;;0.80;;
47778;SDS011;33538;48.432;11.350;2023-12-28T09:43:31;3.70;;;1.25;;
47778;SDS011;33538;48.432;11.350;2023-12-28T09:46:01;1.08;;;0.80;;
47778;SDS011;33538;48.432;11.350;2023-12-28T09:48:32;2.22;;;1.25;;
47778;SDS011;33538;48.432;11.350;2023-12-28T09:51:00;1.73;;;1.10;;
47778;SDS011;33538;48.432;11.350;2023-12-28T09:53:27;1.85;;;0.80;;
47778;SDS011;33538;48.432;11.350;2023-12-28T09:55:54;1.85;;;1.10;;
47778;SDS011;33538;48.432;11.350;2023-12-28T09:58:21;1.55;;;0.70;;
47778;SDS011;33538;48.432;11.350;2023-12-28T10:00:49;3.80;;;1.13;;
47778;SDS011;33538;48.432;11.350;2023-12-28T10:03:17;1.30;;;1.10;;
47778;SDS011;33538;48.432;11.350;2023-12-28T10:05:46;1.45;;;1.08;;
47778;SDS011;33538;48.432;11.350;2023-12-28T10:08:15;4.13;;;1.30;;
47778;SDS011;33538;48.432;11.350;2023-12-28T10:10:43;2.05;;;0.73;;
47778;SDS011;33538;48.432;11.350;2023-12-28T10:13:10;1.77;;;1.00;;
47778;SDS011;33538;48.432;11.350;2023-12-28T10:15:37;2.53;;;1.40;;
47778;SDS011;33538;48.432;11.350;2023-12-28T10:18:04;1.73;;;1.10;;
47778;SDS011;33538;48.432;11.350;2023-12-28T10:20:32;1.55;;;0.93;;
47778;SDS011;33538;48.432;11.350;2023-12-28T10:22:59;2.28;;;1.05;;
47778;SDS011;33538;48.432;11.350;2023-12-28T10:25:28;1.67;;;1.00;;
47778;SDS011;33538;48.432;11.350;2023-12-28T10:27:56;2.83;;;0.90;;
47778;SDS011;33538;48.432;11.350;2023-12-28T10:30:23;1.75;;;1.00;;
47778;SDS011;33538;48.432;11.350;2023-12-28T10:32:50;1.25;;;0.98;;
47778;SDS011;33538;48.432;11.350;2023-12-28T10:35:18;2.40;;;1.10;;
47778;SDS011;33538;48.432;11.350;2023-12-28T10:37:45;3.33;;;1.15;;
47778;SDS011;33538;48.432;11.350;2023-12-28T10:40:16;1.73;;;1.33;;
47778;SDS011;33538;48.432;11.350;2023-12-28T10:42:49;2.40;;;1.10;;
47778;SDS011;33538;48.432;11.350;2023-12-28T10:45:18;6.30;;;1.00;;
47778;SDS011;33538;48.432;11.350;2023-12-28T10:47:47;3.22;;;1.30;;
47778;SDS011;33538;48.432;11.350;2023-12-28T10:50:27;1.77;;;0.93;;
47778;SDS011;33538;48.432;11.350;2023-12-28T10:52:58;0.93;;;0.88;;
47778;SDS011;33538;48.432;11.350;2023-12-28T10:55:34;1.77;;;1.02;;
47778;SDS011;33538;48.432;11.350;2023-12-28T10:58:12;1.50;;;1.02;;
47778;SDS011;33538;48.432;11.350;2023-12-28T11:00:45;2.45;;;1.13;;
47778;SDS011;33538;48.432;11.350;2023-12-28T11:03:21;2.80;;;1.40;;
47778;SDS011;33538;48.432;11.350;2023-12-28T11:05:53;1.17;;;0.77;;
47778;SDS011;33538;48.432;11.350;2023-12-28T11:08:22;1.50;;;0.93;;
47778;SDS011;33538;48.432;11.350;2023-12-28T11:10:50;1.20;;;0.82;;
47778;SDS011;33538;48.432;11.350;2023-12-28T11:13:19;1.63;;;1.10;;
47778;SDS011;33538;48.432;11.350;2023-12-28T11:15:46;2.42;;;1.20;;
47778;SDS011;33538;48.432;11.350;2023-12-28T11:18:14;1.20;;;0.70;;
47778;SDS011;33538;48.432;11.350;2023-12-28T11:20:42;1.35;;;0.80;;
47778;SDS011;33538;48.432;11.350;2023-12-28T11:23:09;2.15;;;0.88;;
47778;SDS011;33538;48.432;11.350;2023-12-28T11:25:37;0.85;;;0.70;;
47778;SDS011;33538;48.432;11.350;2023-12-28T11:28:08;1.52;;;0.90;;
47778;SDS011;33538;48.432;11.350;2023-12-28T11:30:37;2.53;;;1.10;;
47778;SDS011;33538;48.432;11.350;2023-12-28T11:33:04;1.40;;;0.88;;
47778;SDS011;33538;48.432;11.350;2023-12-28T11:35:33;1.52;;;0.88;;
47778;SDS011;33538;48.432;11.350;2023-12-28T11:38:01;1.20;;;0.68;;
47778;SDS011;33538;48.432;11.350;2023-12-28T11:40:30;2.28;;;0.82;;
47778;SDS011;33538;48.432;11.350;2023-12-28T11:42:57;1.52;;;0.93;;
47778;SDS011;33538;48.432;11.350;2023-12-28T11:45:24;1.42;;;0.95;;
47778;SDS011;33538;48.432;11.350;2023-12-28T11:47:59;1.50;;;1.05;;
47778;SDS011;33538;48.432;11.350;2023-12-28T11:50:27;1.83;;;0.90;;
47778;SDS011;33538;48.432;11.350;2023-12-28T11:52:54;1.85;;;1.25;;
47778;SDS011;33538;48.432;11.350;2023-12-28T11:55:21;2.22;;;1.10;;
47778;SDS011;33538;48.432;11.350;2023-12-28T11:57:48;1.55;;;0.82;;
47778;SDS011;33538;48.432;11.350;2023-12-28T12:00:15;2.28;;;1.08;;
47778;SDS011;33538;48.432;11.350;2023-12-28T12:02:43;2.63;;;0.82;;
47778;SDS011;33538;48.432;11.350;2023-12-28T12:05:11;2.78;;;1.25;;
47778;SDS011;33538;48.432;11.350;2023-12-28T12:07:38;1.92;;;0.73;;
47778;SDS011;33538;48.432;11.350;2023-12-28T12:10:05;4.20;;;1.05;;
47778;SDS011;33538;48.432;11.350;2023-12-28T12:12:33;0.88;;;0.73;;
47778;SDS011;33538;48.432;11.350;2023-12-28T12:15:00;1.85;;;0.90;;
47778;SDS011;33538;48.432;11.350;2023-12-28T12:17:27;1.77;;;1.15;;
47778;SDS011;33538;48.432;11.350;2023-12-28T12:19:54;1.33;;;0.88;;
47778;SDS011;33538;48.432;11.350;2023-12-28T12:22:24;3.00;;;0.90;;
47778;SDS011;33538;48.432;11.350;2023-12-28T12:24:55;1.50;;;1.02;;
47778;SDS011;33538;48.432;11.350;2023-12-28T12:27:24;1.20;;;0.60;;
47778;SDS011;33538;48.432;11.350;2023-12-28T12:29:51;1.17;;;0.68;;
47778;SDS011;33538;48.432;11.350;2023-12-28T12:32:18;2.08;;;1.02;;
47778;SDS011;33538;48.432;11.350;2023-12-28T12:34:45;1.77;;;0.80;;
47778;SDS011;33538;48.432;11.350;2023-12-28T12:37:13;1.55;;;0.82;;
47778;SDS011;33538;48.432;11.350;2023-12-28T12:39:41;2.17;;;0.82;;
47778;SDS011;33538;48.432;11.350;2023-12-28T12:42:12;1.60;;;1.17;;
47778;SDS011;33538;48.432;11.350;2023-12-28T12:44:39;1.25;;;0.80;;
47778;SDS011;33538;48.432;11.350;2023-12-28T12:47:06;1.17;;;0.88;;
47778;SDS011;33538;48.432;11.350;2023-12-28T12:49:33;1.55;;;0.80;;
47778;SDS011;33538;48.432;11.350;2023-12-28T12:52:00;1.38;;;1.00;;
47778;SDS011;33538;48.432;11.350;2023-12-28T12:54:30;1.88;;;1.10;;
47778;SDS011;33538;48.432;11.350;2023-12-28T12:56:59;1.38;;;0.80;;
47778;SDS011;33538;48.432;11.350;2023-12-28T12:59:26;0.95;;;0.88;;
47778;SDS011;33538;48.432;11.350;2023-12-28T13:01:53;3.28;;;0.70;;
47778;SDS011;33538;48.432;11.350;2023-12-28T13:04:20;1.27;;;0.60;;
47778;SDS011;33538;48.432;11.350;2023-12-28T13:06:47;1.33;;;0.65;;
47778;SDS011;33538;48.432;11.350;2023-12-28T13:12:19;1.00;;;0.90;;
47778;SDS011;33538;48.432;11.350;2023-12-28T13:14:46;1.20;;;0.70;;
47778;SDS011;33538;48.432;11.350;2023-12-28T13:17:13;1.05;;;0.80;;
47778;SDS011;33538;48.432;11.350;2023-12-28T13:22:31;0.50;;;0.50;;
47778;SDS011;33538;48.432;11.350;2023-12-28T13:24:58;1.02;;;0.80;;
47778;SDS011;33538;48.432;11.350;2023-12-28T13:27:26;0.75;;;0.68;;
47778;SDS011;33538;48.432;11.350;2023-12-28T13:29:53;1.60;;;0.85;;
47778;SDS011;33538;48.432;11.350;2023-12-28T13:32:20;2.20;;;0.80;;
47778;SDS011;33538;48.432;11.350;2023-12-28T13:34:47;1.38;;;0.90;;
47778;SDS011;33538;48.432;11.350;2023-12-28T13:37:14;1.23;;;0.63;;
47778;SDS011;33538;48.432;11.350;2023-12-28T13:39:41;1.20;;;0.80;;
47778;SDS011;33538;48.432;11.350;2023-12-28T13:42:07;1.73;;;0.95;;
47778;SDS011;33538;48.432;11.350;2023-12-28T13:44:36;0.98;;;0.75;;
47778;SDS011;33538;48.432;11.350;2023-12-28T13:47:03;2.30;;;1.08;;
47778;SDS011;33538;48.432;11.350;2023-12-28T13:49:34;1.95;;;1.10;;
47778;SDS011;33538;48.432;11.350;2023-12-28T13:52:00;1.33;;;0.82;;
47778;SDS011;33538;48.432;11.350;2023-12-28T13:54:28;1.35;;;0.90;;
47778;SDS011;33538;48.432;11.350;2023-12-28T13:56:55;1.98;;;1.15;;
47778;SDS011;33538;48.432;11.350;2023-12-28T13:59:21;1.17;;;0.95;;
47778;SDS011;33538;48.432;11.350;2023-12-28T14:01:50;1.58;;;0.90;;
47778;SDS011;33538;48.432;11.350;2023-12-28T14:04:17;1.45;;;1.00;;
47778;SDS011;33538;48.432;11.350;2023-12-28T14:06:44;1.08;;;0.73;;
47778;SDS011;33538;48.432;11.350;2023-12-28T14:09:11;1.73;;;0.75;;
47778;SDS011;33538;48.432;11.350;2023-12-28T14:11:38;3.03;;;1.17;;
47778;SDS011;33538;48.432;11.350;2023-12-28T14:14:05;1.65;;;1.10;;
47778;SDS011;33538;48.432;11.350;2023-12-28T14:16:31;1.58;;;0.82;;
47778;SDS011;33538;48.432;11.350;2023-12-28T14:19:00;1.83;;;1.13;;
47778;SDS011;33538;48.432;11.350;2023-12-28T14:21:27;1.55;;;1.17;;
47778;SDS011;33538;48.432;11.350;2023-12-28T14:23:54;1.80;;;0.95;;
47778;SDS011;33538;48.432;11.350;2023-12-28T14:26:21;1.83;;;1.10;;
47778;SDS011;33538;48.432;11.350;2023-12-28T14:28:49;3.17;;;1.25;;
47778;SDS011;33538;48.432;11.350;2023-12-28T14:31:16;1.95;;;1.00;;
47778;SDS011;33538;48.432;11.350;2023-12-28T14:33:44;2.10;;;1.02;;
47778;SDS011;33538;48.432;11.350;2023-12-28T14:36:15;2.22;;;1.00;;
47778;SDS011;33538;48.432;11.350;2023-12-28T14:38:48;3.45;;;1.42;;
47778;SDS011;33538;48.432;11.350;2023-12-28T14:41:15;2.40;;;1.40;;